Time;durP1;ratioP1;P1;durP2;ratioP2;P2;SDS_P1;SDS_P2;PMS_P1;PMS_P2;Temp;Humidity;BMP_temperature;BMP_pressure;BME280_temperature;BME280_humidity;BME280_pressure;Samples;Min_cycle;Max_cycle;Signal;HPM_P1;HPM_P2
2023/05/16 00:01:50;;;;;;;12.70;3.00;;;10.30;99.90;;;;;;4995422;28;20054;-70
2023/05/16 00:04:16;;;;;;;12.83;2.50;;;10.30;99.90;;;;;;4994448;28;20536;-70
2023/05/16 00:06:42;;;;;;;14.57;2.40;;;10.40;99.90;;;;;;4995089;28;20050;-71
2023/05/16 00:09:08;;;;;;;14.23;3.50;;;10.30;99.90;;;;;;4994986;28;20606;-70
2023/05/16 00:11:33;;;;;;;18.13;2.83;;;10.30;99.90;;;;;;4995889;28;20129;-70
2023/05/16 00:14:00;;;;;;;14.53;2.87;;;10.20;99.90;;;;;;4994215;28;20524;-71
2023/05/16 00:16:28;;;;;;;11.90;2.50;;;10.20;99.90;;;;;;4994881;28;20054;-71
2023/05/16 00:18:56;;;;;;;12.23;2.70;;;10.20;99.90;;;;;;4994179;28;20368;-70
2023/05/16 00:21:23;;;;;;;14.93;2.50;;;10.10;99.90;;;;;;4993998;28;20321;-71
2023/05/16 00:23:50;;;;;;;14.67;2.50;;;10.10;99.90;;;;;;4994973;28;20317;-71
2023/05/16 00:26:15;;;;;;;15.47;3.50;;;10.10;99.90;;;;;;4994898;28;20292;-71
2023/05/16 00:28:41;;;;;;;11.57;2.10;;;10.10;99.90;;;;;;4993745;28;20293;-70
2023/05/16 00:31:07;;;;;;;13.63;2.57;;;10.10;99.90;;;;;;4994783;28;20050;-70
2023/05/16 00:33:33;;;;;;;13.10;2.50;;;10.10;99.90;;;;;;4994999;28;20042;-71
2023/05/16 00:35:59;;;;;;;17.40;3.30;;;10.00;99.90;;;;;;4977626;28;20050;-70
2023/05/16 00:38:25;;;;;;;12.60;2.47;;;10.00;99.90;;;;;;4993402;28;20332;-70
2023/05/16 00:40:51;;;;;;;11.53;1.97;;;9.90;99.90;;;;;;4994676;28;20058;-70
2023/05/16 00:43:16;;;;;;;11.70;2.03;;;9.90;99.90;;;;;;4994633;28;20042;-70
2023/05/16 00:45:43;;;;;;;14.20;2.93;;;9.90;99.90;;;;;;4994545;28;20053;-70
2023/05/16 00:48:10;;;;;;;13.67;2.60;;;9.90;99.90;;;;;;4993333;28;20478;-70
2023/05/16 00:50:36;;;;;;;10.83;2.30;;;9.90;99.90;;;;;;4994442;28;20281;-70
2023/05/16 00:53:03;;;;;;;13.40;3.10;;;9.90;99.90;;;;;;4994408;28;20395;-70
2023/05/16 00:55:28;;;;;;;12.53;2.90;;;9.80;99.90;;;;;;4994356;28;20308;-70
2023/05/16 00:57:57;;;;;;;15.33;2.40;;;9.80;99.90;;;;;;4994395;28;20848;-70
2023/05/16 01:00:22;;;;;;;15.83;2.60;;;9.80;99.90;;;;;;4993441;28;20406;-72
2023/05/16 01:02:52;;;;;;;13.33;2.90;;;9.80;99.90;;;;;;4994146;28;20298;-70
2023/05/16 01:05:18;;;;;;;8.33;2.10;;;9.70;99.90;;;;;;4992794;28;20077;-70
2023/05/16 01:07:44;;;;;;;16.60;2.53;;;9.70;99.90;;;;;;4994180;28;20286;-71
2023/05/16 01:10:10;;;;;;;19.97;3.37;;;9.70;99.90;;;;;;4993066;28;20329;-70
2023/05/16 01:12:55;;;;;;;12.80;2.50;;;9.70;99.90;;;;;;4992892;28;20043;-70
2023/05/16 01:15:27;;;;;;;9.60;2.00;;;9.60;99.90;;;;;;4994406;28;20289;-70
2023/05/16 01:18:02;;;;;;;14.57;2.30;;;9.60;99.90;;;;;;4994681;28;20278;-70
2023/05/16 01:20:56;;;;;;;13.77;2.22;;;9.60;99.90;;;;;;4992966;28;20290;-70
2023/05/16 01:23:52;;;;;;;13.40;3.10;;;9.70;99.90;;;;;;4993502;28;20121;-70
2023/05/16 01:26:21;;;;;;;15.50;2.25;;;9.70;99.90;;;;;;4994127;28;20300;-70
2023/05/16 01:28:48;;;;;;;13.90;2.87;;;9.70;99.90;;;;;;4994044;28;20046;-71
2023/05/16 01:31:15;;;;;;;14.83;3.03;;;9.70;99.90;;;;;;4993049;28;20298;-70
2023/05/16 01:33:41;;;;;;;13.00;2.67;;;9.70;99.90;;;;;;4993051;28;20316;-70
2023/05/16 01:36:28;;;;;;;11.93;2.33;;;9.70;99.90;;;;;;4994201;28;20742;-70
2023/05/16 01:39:18;;;;;;;12.97;2.40;;;9.60;99.90;;;;;;4993751;28;20294;-70
2023/05/16 01:41:55;;;;;;;16.23;2.50;;;9.60;99.90;;;;;;4993934;28;20376;-70
2023/05/16 01:44:51;;;;;;;14.47;2.30;;;9.60;99.90;;;;;;4993916;28;20281;-70
2023/05/16 01:47:20;;;;;;;11.20;2.67;;;9.60;99.90;;;;;;4977551;28;20297;-70
2023/05/16 01:49:50;;;;;;;10.80;2.07;;;9.50;99.90;;;;;;4976973;28;20294;-70
2023/05/16 01:52:26;;;;;;;11.97;2.40;;;9.50;99.90;;;;;;4994589;28;20340;-70
2023/05/16 01:54:54;;;;;;;12.90;2.63;;;9.50;99.90;;;;;;4993835;28;20278;-70
2023/05/16 01:57:25;;;;;;;10.93;2.30;;;9.40;99.90;;;;;;4993087;28;20289;-70
2023/05/16 01:59:51;;;;;;;13.70;2.17;;;9.40;99.90;;;;;;4993795;28;20404;-70
2023/05/16 02:02:18;;;;;;;12.93;2.43;;;9.30;99.90;;;;;;4993820;28;20277;-70
2023/05/16 02:04:44;;;;;;;12.93;2.73;;;9.30;99.90;;;;;;4992654;28;20293;-70
2023/05/16 02:07:10;;;;;;;16.47;3.07;;;9.30;99.90;;;;;;4992628;28;20285;-70
2023/05/16 02:09:36;;;;;;;12.60;2.70;;;9.30;99.90;;;;;;4993968;28;20050;-70
2023/05/16 02:12:02;;;;;;;13.67;2.47;;;9.30;99.90;;;;;;4993210;28;20666;-70
2023/05/16 02:14:28;;;;;;;9.67;2.53;;;9.30;99.90;;;;;;4993618;28;20050;-70
2023/05/16 02:16:54;;;;;;;9.00;1.80;;;9.30;99.90;;;;;;4996538;28;20398;-70
2023/05/16 02:19:20;;;;;;;11.17;2.27;;;9.30;99.90;;;;;;4996190;28;20277;-70
2023/05/16 02:21:45;;;;;;;14.40;2.60;;;9.20;99.90;;;;;;4996602;28;20135;-70
2023/05/16 02:24:11;;;;;;;14.93;3.23;;;9.20;99.90;;;;;;4997184;28;20049;-70
2023/05/16 02:26:37;;;;;;;10.80;2.13;;;9.20;99.90;;;;;;4997154;28;20046;-71
2023/05/16 02:29:02;;;;;;;14.20;3.27;;;9.20;99.90;;;;;;4997149;28;20046;-70
2023/05/16 02:31:29;;;;;;;12.87;2.67;;;9.20;99.90;;;;;;4995842;28;20046;-70
2023/05/16 02:33:57;;;;;;;14.90;2.17;;;9.20;99.90;;;;;;4997256;28;20078;-70
2023/05/16 02:36:23;;;;;;;17.57;2.97;;;9.20;99.90;;;;;;4996072;28;20774;-70
2023/05/16 02:38:49;;;;;;;12.07;2.27;;;9.20;99.90;;;;;;4996451;28;20780;-70
2023/05/16 02:41:15;;;;;;;13.63;2.30;;;9.10;99.90;;;;;;4996899;28;20282;-70
2023/05/16 02:43:42;;;;;;;17.67;2.97;;;9.10;99.90;;;;;;4995831;28;20086;-70
2023/05/16 02:46:29;;;;;;;19.07;3.17;;;9.10;99.90;;;;;;4996651;28;20050;-70
2023/05/16 02:48:55;;;;;;;12.33;2.50;;;9.10;99.90;;;;;;4995704;28;20297;-70
2023/05/16 02:51:23;;;;;;;11.60;2.70;;;9.10;99.90;;;;;;4996651;28;20282;-70
2023/05/16 02:53:50;;;;;;;15.90;3.53;;;9.10;99.90;;;;;;4995437;28;20657;-70
2023/05/16 02:56:16;;;;;;;14.33;2.33;;;9.10;99.90;;;;;;4996673;28;20289;-70
2023/05/16 02:58:42;;;;;;;10.07;2.73;;;9.10;99.90;;;;;;4996520;28;20623;-71
2023/05/16 03:01:08;;;;;;;13.07;3.27;;;9.10;99.90;;;;;;4996319;28;20395;-70
2023/05/16 03:03:36;;;;;;;15.67;3.17;;;9.10;99.90;;;;;;4995500;28;20769;-70
2023/05/16 03:06:02;;;;;;;10.10;2.47;;;9.00;99.90;;;;;;4995455;28;20788;-70
2023/05/16 03:08:28;;;;;;;8.37;2.33;;;9.00;99.90;;;;;;4995741;28;20281;-70
2023/05/16 03:10:53;;;;;;;14.20;2.20;;;9.00;99.90;;;;;;4996170;28;20418;-70
2023/05/16 03:13:19;;;;;;;13.83;2.37;;;9.00;99.90;;;;;;4995145;28;20065;-71
2023/05/16 03:15:45;;;;;;;11.77;2.50;;;9.00;99.90;;;;;;4979069;28;20054;-71
2023/05/16 03:18:11;;;;;;;19.63;2.90;;;8.90;99.90;;;;;;4996700;28;20097;-70
2023/05/16 03:20:39;;;;;;;9.63;2.10;;;8.90;99.90;;;;;;4995179;28;20607;-71
2023/05/16 03:23:08;;;;;;;12.17;2.20;;;8.90;99.90;;;;;;4995018;28;20178;-70
2023/05/16 03:25:35;;;;;;;11.13;2.33;;;8.90;99.90;;;;;;4996086;28;20837;-70
2023/05/16 03:28:01;;;;;;;12.30;2.20;;;8.80;99.90;;;;;;4995248;28;20785;-70
2023/05/16 03:30:27;;;;;;;15.03;3.07;;;8.80;99.90;;;;;;4996599;28;20757;-70
2023/05/16 03:32:54;;;;;;;11.73;2.20;;;8.80;99.90;;;;;;4994866;28;20393;-70
2023/05/16 03:35:21;;;;;;;11.77;2.03;;;8.80;99.90;;;;;;4996014;28;20061;-70
2023/05/16 03:37:46;;;;;;;13.90;2.10;;;8.80;99.90;;;;;;4994898;28;20356;-70
2023/05/16 03:40:12;;;;;;;14.50;2.30;;;8.90;99.90;;;;;;4994727;28;20289;-70
2023/05/16 03:42:38;;;;;;;14.33;3.57;;;8.90;99.90;;;;;;4996359;28;20116;-70
2023/05/16 03:45:05;;;;;;;11.30;2.03;;;8.90;99.90;;;;;;4995686;28;20053;-70
2023/05/16 03:47:31;;;;;;;10.67;1.97;;;8.90;99.90;;;;;;4995690;28;20094;-70
2023/05/16 03:49:57;;;;;;;10.30;2.03;;;8.90;99.90;;;;;;4978467;28;20329;-70
2023/05/16 03:52:22;;;;;;;11.87;2.13;;;8.90;99.90;;;;;;4996005;28;20054;-70
2023/05/16 03:54:48;;;;;;;10.00;2.80;;;8.90;99.90;;;;;;4995487;28;20425;-70
2023/05/16 03:57:14;;;;;;;8.17;1.80;;;8.90;99.90;;;;;;4994492;28;20099;-70
2023/05/16 03:59:39;;;;;;;9.20;2.03;;;8.90;99.90;;;;;;4995096;28;20096;-70
2023/05/16 04:02:05;;;;;;;8.47;1.80;;;8.90;99.90;;;;;;4996199;28;20042;-70
2023/05/16 04:04:31;;;;;;;11.03;2.50;;;8.90;99.90;;;;;;4995285;28;20038;-70
2023/05/16 04:06:57;;;;;;;11.40;2.53;;;8.90;99.90;;;;;;4994309;28;20049;-70
2023/05/16 04:09:22;;;;;;;10.23;2.23;;;8.90;99.90;;;;;;4995247;28;20125;-70
2023/05/16 04:11:48;;;;;;;12.50;3.20;;;8.90;99.90;;;;;;4995142;28;20125;-70
2023/05/16 04:14:14;;;;;;;9.97;2.63;;;9.00;99.90;;;;;;4995049;28;20038;-70
2023/05/16 04:16:40;;;;;;;11.30;2.13;;;9.00;99.90;;;;;;4995139;28;20050;-70
2023/05/16 04:19:06;;;;;;;11.87;2.57;;;9.00;99.90;;;;;;4994356;28;20093;-70
2023/05/16 04:21:32;;;;;;;12.33;2.10;;;9.00;99.90;;;;;;4995315;28;20626;-70
2023/05/16 04:23:58;;;;;;;10.53;2.27;;;9.00;99.90;;;;;;4994909;28;20479;-70
2023/05/16 04:26:24;;;;;;;11.47;1.97;;;9.00;99.90;;;;;;4995013;28;20054;-70
2023/05/16 04:28:50;;;;;;;8.03;2.00;;;9.10;99.90;;;;;;4993896;28;20050;-71
2023/05/16 04:31:16;;;;;;;12.00;1.93;;;9.20;99.90;;;;;;4994593;28;20289;-70
2023/05/16 04:33:42;;;;;;;9.27;1.80;;;9.10;99.90;;;;;;4993632;28;20144;-70
2023/05/16 04:36:08;;;;;;;9.07;2.70;;;9.20;99.90;;;;;;4994750;28;20321;-70
2023/05/16 04:38:33;;;;;;;11.83;2.20;;;9.20;99.90;;;;;;4993617;28;20098;-70
2023/05/16 04:41:00;;;;;;;11.00;2.20;;;9.30;99.90;;;;;;4994270;28;20065;-70
2023/05/16 04:43:26;;;;;;;11.57;2.77;;;9.40;99.90;;;;;;4994692;28;20051;-70
2023/05/16 04:45:54;;;;;;;11.27;2.73;;;9.40;99.90;;;;;;4993509;28;20767;-71
2023/05/16 04:48:20;;;;;;;10.37;2.50;;;9.50;99.90;;;;;;4993799;28;20050;-70
2023/05/16 04:50:46;;;;;;;8.33;1.97;;;9.50;99.90;;;;;;4994524;28;20706;-70
2023/05/16 04:53:13;;;;;;;9.20;2.13;;;9.50;99.90;;;;;;4994045;28;20042;-70
2023/05/16 04:55:39;;;;;;;9.03;2.37;;;9.60;99.90;;;;;;4993504;28;20068;-70
2023/05/16 04:58:05;;;;;;;12.93;2.37;;;9.70;99.90;;;;;;4993255;28;20380;-70
2023/05/16 05:00:31;;;;;;;8.17;1.70;;;9.70;99.90;;;;;;4993692;28;20046;-70
2023/05/16 05:02:57;;;;;;;8.70;2.10;;;9.80;99.90;;;;;;4994052;28;20138;-71
2023/05/16 05:05:23;;;;;;;10.17;2.50;;;9.90;99.90;;;;;;4994256;28;20105;-70
2023/05/16 05:07:48;;;;;;;11.43;3.00;;;10.00;99.90;;;;;;4994231;28;20054;-70
2023/05/16 05:10:14;;;;;;;9.03;1.73;;;10.00;99.90;;;;;;4994226;28;20132;-70
2023/05/16 05:12:40;;;;;;;12.20;2.23;;;10.10;99.90;;;;;;4994175;28;20133;-70
2023/05/16 05:15:07;;;;;;;9.10;2.23;;;10.20;99.90;;;;;;4977281;28;20065;-70
2023/05/16 05:17:33;;;;;;;10.03;1.70;;;10.30;99.90;;;;;;4994149;28;20282;-70
2023/05/16 05:19:58;;;;;;;13.47;2.40;;;10.40;99.90;;;;;;4994065;28;20355;-70
2023/05/16 05:22:24;;;;;;;7.27;1.63;;;10.60;99.90;;;;;;4993368;28;20049;-70
2023/05/16 05:24:50;;;;;;;10.30;2.43;;;10.70;99.90;;;;;;4994077;28;20066;-70
2023/05/16 05:27:16;;;;;;;8.57;1.63;;;10.80;99.90;;;;;;4993822;28;20058;-70
2023/05/16 05:29:42;;;;;;;7.57;1.90;;;11.00;99.90;;;;;;4994081;28;20289;-70
2023/05/16 05:32:07;;;;;;;10.23;1.97;;;11.20;99.90;;;;;;4977008;28;20093;-70
2023/05/16 05:34:33;;;;;;;7.77;1.73;;;11.30;99.90;;;;;;4994142;28;20440;-70
2023/05/16 05:36:59;;;;;;;9.00;2.13;;;11.40;99.90;;;;;;4992683;28;20495;-71
2023/05/16 05:39:25;;;;;;;8.57;2.00;;;11.60;99.90;;;;;;4994076;28;20141;-70
2023/05/16 05:41:51;;;;;;;12.77;2.60;;;11.80;99.90;;;;;;4993871;28;20409;-70
2023/05/16 05:44:17;;;;;;;12.30;2.40;;;11.90;99.90;;;;;;4994597;28;20049;-70
2023/05/16 05:46:43;;;;;;;10.07;1.80;;;12.40;99.90;;;;;;4993604;28;20286;-70
2023/05/16 05:49:09;;;;;;;8.33;1.90;;;13.50;99.90;;;;;;4993945;28;20047;-68
2023/05/16 05:51:35;;;;;;;5.93;1.53;;;14.80;99.90;;;;;;4997161;28;20697;-68
2023/05/16 05:54:01;;;;;;;8.13;1.60;;;16.20;99.90;;;;;;4997651;28;20505;-68
2023/05/16 05:56:27;;;;;;;6.50;1.73;;;16.90;99.90;;;;;;4997586;28;20173;-68
2023/05/16 05:58:53;;;;;;;10.63;2.03;;;17.30;99.90;;;;;;4997983;28;20792;-68
2023/05/16 06:01:20;;;;;;;8.77;1.83;;;17.40;99.90;;;;;;4996566;28;20474;-69
2023/05/16 06:03:46;;;;;;;7.17;1.70;;;16.80;99.90;;;;;;4996922;28;20098;-68
2023/05/16 06:06:13;;;;;;;7.40;2.20;;;16.00;99.90;;;;;;4996917;28;20317;-69
2023/05/16 06:08:39;;;;;;;6.27;1.90;;;15.30;99.90;;;;;;4997555;28;20777;-69
2023/05/16 06:11:06;;;;;;;8.63;2.30;;;15.00;99.90;;;;;;4996178;28;20285;-69
2023/05/16 06:13:31;;;;;;;7.77;2.20;;;15.40;99.90;;;;;;4996185;28;20915;-69
2023/05/16 06:15:57;;;;;;;7.00;1.50;;;15.80;99.90;;;;;;4996369;28;20321;-69
2023/05/16 06:18:23;;;;;;;7.67;1.50;;;17.00;99.90;;;;;;4996616;28;20101;-70
2023/05/16 06:20:49;;;;;;;9.23;1.90;;;17.50;99.90;;;;;;4997333;28;20100;-70
2023/05/16 06:23:15;;;;;;;8.00;1.70;;;18.00;99.90;;;;;;4997279;28;20050;-70
2023/05/16 06:25:41;;;;;;;8.50;1.90;;;18.80;99.90;;;;;;4997526;28;20050;-69
2023/05/16 06:28:07;;;;;;;8.33;1.80;;;19.00;99.90;;;;;;4997094;28;20389;-70
2023/05/16 06:30:32;;;;;;;7.40;2.00;;;19.80;99.90;;;;;;4996804;28;20050;-70
2023/05/16 06:32:58;;;;;;;6.60;1.70;;;20.70;98.00;;;;;;4996983;28;20133;-70
2023/05/16 06:35:24;;;;;;;8.43;2.57;;;21.90;96.00;;;;;;4996990;28;20133;-70
2023/05/16 06:37:49;;;;;;;6.97;2.43;;;22.80;84.50;;;;;;4997070;28;20053;-70
2023/05/16 06:40:15;;;;;;;8.43;1.53;;;23.40;78.70;;;;;;4996759;28;20057;-70
2023/05/16 06:42:41;;;;;;;8.93;2.60;;;22.80;68.80;;;;;;4996871;28;20046;-70
2023/05/16 06:45:08;;;;;;;5.77;1.50;;;21.10;69.10;;;;;;4995913;28;20042;-70
2023/05/16 06:47:33;;;;;;;6.90;1.73;;;19.70;79.30;;;;;;4996833;28;20050;-70
2023/05/16 06:49:59;;;;;;;6.23;2.00;;;18.50;90.40;;;;;;4997072;28;20057;-70
2023/05/16 06:52:25;;;;;;;6.30;1.70;;;17.60;93.70;;;;;;4997443;28;20046;-70
2023/05/16 06:54:51;;;;;;;5.37;2.07;;;17.70;98.60;;;;;;4995705;28;20478;-70
2023/05/16 06:57:17;;;;;;;8.17;2.07;;;18.70;99.90;;;;;;4996860;28;20042;-71
2023/05/16 06:59:43;;;;;;;6.00;1.73;;;19.80;97.30;;;;;;4996882;28;20655;-71
2023/05/16 07:02:09;;;;;;;6.70;1.57;;;20.00;92.40;;;;;;4994342;28;20046;-71
2023/05/16 07:04:36;;;;;;;6.97;1.53;;;19.80;89.90;;;;;;4997080;28;20129;-71
2023/05/16 07:07:03;;;;;;;8.00;2.43;;;19.10;87.30;;;;;;4996175;28;20046;-71
2023/05/16 07:09:30;;;;;;;7.27;2.23;;;18.70;89.50;;;;;;4996701;28;20058;-71
2023/05/16 07:11:55;;;;;;;7.53;2.07;;;18.50;92.30;;;;;;4996421;28;20074;-71
2023/05/16 07:14:21;;;;;;;8.53;2.07;;;17.90;91.80;;;;;;4995052;28;20046;-70
2023/05/16 07:16:47;;;;;;;8.83;2.03;;;17.20;93.00;;;;;;4995275;28;20390;-70
2023/05/16 07:19:13;;;;;;;8.90;2.40;;;16.50;94.30;;;;;;4997029;28;20073;-71
2023/05/16 07:21:38;;;;;;;9.33;2.10;;;16.40;97.80;;;;;;4979589;28;20443;-70
2023/05/16 07:24:05;;;;;;;12.43;2.50;;;16.70;98.70;;;;;;4996223;28;20125;-70
2023/05/16 07:26:31;;;;;;;9.50;2.70;;;17.90;97.80;;;;;;4996071;28;20113;-70
2023/05/16 07:28:56;;;;;;;9.60;2.90;;;19.40;90.80;;;;;;4996039;28;20491;-70
2023/05/16 07:31:23;;;;;;;7.53;2.10;;;20.70;83.60;;;;;;4995970;28;20054;-70
2023/05/16 07:33:49;;;;;;;8.10;2.50;;;21.80;68.00;;;;;;4995608;28;20394;-70
2023/05/16 07:36:15;;;;;;;8.53;2.20;;;22.40;58.20;;;;;;4995905;28;20057;-70
2023/05/16 07:38:42;;;;;;;6.37;2.13;;;23.40;58.90;;;;;;4995719;28;20054;-70
2023/05/16 07:41:08;;;;;;;8.43;2.33;;;22.80;53.80;;;;;;4995877;28;20100;-73
2023/05/16 07:43:34;;;;;;;7.07;1.80;;;22.00;54.20;;;;;;4996872;28;20125;-71
2023/05/16 07:46:01;;;;;;;7.83;2.30;;;20.80;55.40;;;;;;4994833;28;20058;-71
2023/05/16 07:48:27;;;;;;;5.57;2.03;;;19.80;56.10;;;;;;4978653;28;20050;-71
2023/05/16 07:50:53;;;;;;;7.77;2.53;;;19.00;58.80;;;;;;4995701;28;20050;-70
2023/05/16 07:53:19;;;;;;;8.60;2.43;;;19.10;64.50;;;;;;4995734;28;20047;-70
2023/05/16 07:55:45;;;;;;;9.40;2.60;;;20.00;65.90;;;;;;4996281;28;20050;-70
2023/05/16 07:58:11;;;;;;;7.73;2.20;;;21.30;62.90;;;;;;4994152;28;20150;-71
2023/05/16 08:00:36;;;;;;;9.07;2.20;;;22.40;56.60;;;;;;4994250;28;20050;-70
2023/05/16 08:03:02;;;;;;;8.57;2.20;;;23.10;54.00;;;;;;4995908;28;20053;-70
2023/05/16 08:05:28;;;;;;;8.97;1.87;;;22.90;50.10;;;;;;4995344;28;20090;-70
2023/05/16 08:07:54;;;;;;;6.70;1.90;;;22.60;49.80;;;;;;4995713;28;20046;-69
2023/05/16 08:10:22;;;;;;;8.47;2.07;;;21.50;48.70;;;;;;4994244;28;20049;-71
2023/05/16 08:12:47;;;;;;;8.37;2.37;;;21.00;50.80;;;;;;4994997;28;20121;-70
2023/05/16 08:15:13;;;;;;;7.60;2.30;;;21.20;52.40;;;;;;4994737;28;20074;-70
2023/05/16 08:17:39;;;;;;;6.00;2.03;;;21.60;49.30;;;;;;4995175;28;20573;-70
2023/05/16 08:20:06;;;;;;;9.73;2.07;;;22.10;50.60;;;;;;4995283;28;20050;-70
2023/05/16 08:22:32;;;;;;;7.67;2.17;;;22.40;50.70;;;;;;4995045;28;20124;-74
2023/05/16 08:24:59;;;;;;;8.63;2.13;;;22.80;50.10;;;;;;4994087;28;20058;-71
2023/05/16 08:27:26;;;;;;;6.43;2.13;;;22.80;49.50;;;;;;4994935;28;20428;-70
2023/05/16 08:29:52;;;;;;;9.73;2.23;;;21.70;48.60;;;;;;4994901;28;20543;-71
2023/05/16 08:32:18;;;;;;;8.57;1.70;;;21.00;50.50;;;;;;4993428;28;20125;-70
2023/05/16 08:34:43;;;;;;;7.17;1.80;;;20.60;50.80;;;;;;4995300;28;20050;-70
2023/05/16 08:37:09;;;;;;;10.80;2.03;;;20.20;50.80;;;;;;4994742;28;20081;-68
2023/05/16 08:39:37;;;;;;;6.17;1.90;;;20.00;50.60;;;;;;4995052;28;20482;-69
2023/05/16 08:42:04;;;;;;;6.63;1.87;;;19.70;50.00;;;;;;4977558;28;20050;-68
2023/05/16 08:44:30;;;;;;;9.30;2.17;;;19.30;50.60;;;;;;4993232;28;20046;-70
2023/05/16 08:46:56;;;;;;;8.60;2.23;;;19.20;50.90;;;;;;4994626;28;20052;-69
2023/05/16 08:49:25;;;;;;;11.57;2.30;;;18.80;52.00;;;;;;4994119;28;20046;-69
2023/05/16 08:51:56;;;;;;;7.97;2.03;;;18.80;53.10;;;;;;4994842;28;20086;-69
2023/05/16 08:54:22;;;;;;;10.57;2.30;;;18.70;53.50;;;;;;4995021;28;20039;-69
2023/05/16 08:56:49;;;;;;;7.90;2.37;;;18.40;53.20;;;;;;4993331;28;20054;-69
2023/05/16 08:59:15;;;;;;;8.40;1.77;;;18.30;53.90;;;;;;4994445;28;20096;-69
2023/05/16 09:01:41;;;;;;;7.10;1.70;;;18.30;54.60;;;;;;4994671;28;20060;-69
2023/05/16 09:04:08;;;;;;;5.43;1.73;;;18.20;55.20;;;;;;4993173;28;20042;-69
2023/05/16 09:06:37;;;;;;;9.23;1.70;;;18.10;54.90;;;;;;4994351;28;20058;-68
2023/05/16 09:09:06;;;;;;;10.43;1.97;;;17.80;54.90;;;;;;4994215;28;20047;-67
2023/05/16 09:11:32;;;;;;;7.73;2.30;;;17.60;56.30;;;;;;4994211;28;20054;-68
2023/05/16 09:13:58;;;;;;;4.93;1.70;;;17.50;57.20;;;;;;4994132;28;20049;-68
2023/05/16 09:16:24;;;;;;;6.60;1.80;;;17.50;56.70;;;;;;4994178;28;20050;-69
2023/05/16 09:18:58;;;;;;;10.73;2.20;;;17.30;56.00;;;;;;4994150;28;20053;-68
2023/05/16 09:21:32;;;;;;;8.38;1.98;;;17.20;56.30;;;;;;4994230;28;20081;-68
2023/05/16 09:24:08;;;;;;;7.55;1.80;;;17.20;59.50;;;;;;4994152;28;20049;-68
2023/05/16 09:26:36;;;;;;;8.43;1.70;;;17.20;61.00;;;;;;4994202;28;20057;-68
2023/05/16 09:29:12;;;;;;;7.47;2.13;;;17.20;58.40;;;;;;4994009;28;20050;-67
2023/05/16 09:31:38;;;;;;;6.10;1.77;;;17.20;59.70;;;;;;4994840;28;20093;-67
2023/05/16 09:34:07;;;;;;;6.87;2.10;;;17.20;59.70;;;;;;4993978;28;20466;-67
2023/05/16 09:36:33;;;;;;;10.60;1.87;;;17.10;59.20;;;;;;4992813;28;20046;-67
2023/05/16 09:39:00;;;;;;;7.03;1.80;;;17.10;59.30;;;;;;4992853;28;20061;-67
2023/05/16 09:41:26;;;;;;;8.53;2.90;;;17.00;59.90;;;;;;4993131;28;20090;-67
2023/05/16 09:43:52;;;;;;;7.60;1.90;;;16.90;59.50;;;;;;4994682;28;20383;-68
2023/05/16 09:46:18;;;;;;;7.00;2.17;;;16.90;59.00;;;;;;4994070;28;20466;-67
2023/05/16 09:48:46;;;;;;;6.63;1.70;;;16.90;59.00;;;;;;4976911;28;20061;-67
2023/05/16 09:51:13;;;;;;;5.33;1.60;;;16.90;59.90;;;;;;4993839;28;20108;-70
2023/05/16 09:53:40;;;;;;;7.33;1.80;;;16.80;61.00;;;;;;4993705;28;20042;-71
2023/05/16 09:56:15;;;;;;;7.40;2.07;;;16.80;62.40;;;;;;4993566;28;20367;-68
2023/05/16 09:58:43;;;;;;;5.67;1.97;;;16.90;64.70;;;;;;4993356;28;20043;-74
2023/05/16 10:01:10;;;;;;;7.23;1.73;;;16.90;63.60;;;;;;4993487;28;20046;-70
2023/05/16 10:03:39;;;;;;;6.13;1.80;;;16.90;61.00;;;;;;4993025;28;20054;-71
2023/05/16 10:06:05;;;;;;;5.73;1.67;;;16.80;60.00;;;;;;4992034;28;20053;-69
2023/05/16 10:08:35;;;;;;;5.27;1.70;;;16.80;60.80;;;;;;4992169;28;20050;-71
2023/05/16 10:11:03;;;;;;;7.90;2.13;;;16.70;60.70;;;;;;4994138;28;20054;-71
2023/05/16 10:13:30;;;;;;;7.87;2.00;;;16.70;60.70;;;;;;4992163;28;20047;-73
2023/05/16 10:15:58;;;;;;;7.97;1.70;;;16.60;61.20;;;;;;4993112;28;20499;-75
2023/05/16 10:18:29;;;;;;;8.63;1.83;;;16.50;61.60;;;;;;4994301;28;20054;-71
2023/05/16 10:20:57;;;;;;;7.77;1.80;;;16.40;61.90;;;;;;4993924;28;20046;-70
2023/05/16 10:23:24;;;;;;;10.13;2.53;;;16.20;63.70;;;;;;4994093;28;20053;-70
2023/05/16 10:25:51;;;;;;;7.20;1.60;;;16.00;64.00;;;;;;4992341;28;20093;-71
2023/05/16 10:28:17;;;;;;;7.20;2.00;;;15.90;65.30;;;;;;4993520;28;20061;-70
2023/05/16 10:30:47;;;;;;;7.90;1.70;;;15.90;65.60;;;;;;4992285;28;20050;-70
2023/05/16 10:33:14;;;;;;;6.47;1.77;;;16.00;65.70;;;;;;4993432;28;20112;-69
2023/05/16 10:35:41;;;;;;;9.43;1.90;;;16.30;67.00;;;;;;4993427;28;20062;-70
2023/05/16 10:38:09;;;;;;;5.50;1.50;;;16.50;67.50;;;;;;4995521;28;20049;-70
2023/05/16 10:40:40;;;;;;;6.70;1.83;;;16.60;65.80;;;;;;4997510;28;20490;-70
2023/05/16 10:43:07;;;;;;;8.07;1.80;;;16.60;62.50;;;;;;4997287;28;20425;-70
2023/05/16 10:45:34;;;;;;;7.50;2.43;;;16.60;62.90;;;;;;4996495;28;20376;-70
2023/05/16 10:48:11;;;;;;;6.57;2.13;;;16.50;63.50;;;;;;4996812;28;20172;-70
2023/05/16 10:50:42;;;;;;;7.00;1.83;;;16.50;64.00;;;;;;4996938;28;20049;-71
2023/05/16 10:53:30;;;;;;;10.87;2.00;;;16.40;65.50;;;;;;4996557;28;20097;-69
2023/05/16 10:55:58;;;;;;;7.30;2.00;;;16.40;65.60;;;;;;4996934;28;20386;-69
2023/05/16 10:58:43;;;;;;;7.80;1.83;;;16.20;66.70;;;;;;4996766;28;20054;-70
2023/05/16 11:01:14;;;;;;;5.83;1.80;;;16.20;66.60;;;;;;4996814;28;20379;-69
2023/05/16 11:03:59;;;;;;;9.33;2.13;;;16.30;67.50;;;;;;4996404;28;20284;-69
2023/05/16 11:06:41;;;;;;;6.22;2.15;;;16.30;70.90;;;;;;4996382;28;20053;-70
2023/05/16 11:09:10;;;;;;;7.20;1.70;;;16.30;73.70;;;;;;4996443;28;20050;-69
2023/05/16 11:11:51;;;;;;;9.53;2.13;;;16.10;77.50;;;;;;4995177;28;20127;-69
2023/05/16 11:14:33;;;;;;;7.07;2.20;;;15.80;91.90;;;;;;4996288;28;20483;-70
2023/05/16 11:17:07;;;;;;;5.50;1.80;;;15.50;95.20;;;;;;4997134;28;20383;-70
2023/05/16 11:19:45;;;;;;;5.40;1.77;;;15.20;99.90;;;;;;4996191;28;20058;-71
2023/05/16 11:22:16;;;;;;;6.77;1.87;;;15.20;99.90;;;;;;4996834;28;20058;-70
2023/05/16 11:25:09;;;;;;;5.30;1.50;;;15.20;99.90;;;;;;4996964;28;20042;-70
2023/05/16 11:27:43;;;;;;;8.80;2.23;;;15.30;99.90;;;;;;4993522;28;20061;-70
2023/05/16 11:30:14;;;;;;;11.40;2.10;;;15.40;99.90;;;;;;4996130;28;20053;-70
2023/05/16 11:32:42;;;;;;;7.70;2.13;;;15.50;99.90;;;;;;4995285;28;20528;-70
2023/05/16 11:35:10;;;;;;;6.40;1.90;;;15.60;99.90;;;;;;4996052;28;20050;-70
2023/05/16 11:37:38;;;;;;;6.47;2.20;;;15.70;99.90;;;;;;4995984;28;20060;-70
2023/05/16 11:40:05;;;;;;;6.27;2.30;;;15.70;99.90;;;;;;4996092;28;20530;-70
2023/05/16 11:42:46;;;;;;;6.97;1.70;;;15.70;99.70;;;;;;4995840;28;20502;-70
2023/05/16 11:45:12;;;;;;;5.13;1.97;;;15.70;98.80;;;;;;4995229;28;20054;-70
2023/05/16 11:47:43;;;;;;;6.77;2.07;;;15.70;98.60;;;;;;4994688;28;20388;-70
2023/05/16 11:50:18;;;;;;;8.70;2.43;;;15.80;98.10;;;;;;4995763;28;20050;-70
2023/05/16 11:52:47;;;;;;;5.43;2.27;;;15.90;97.20;;;;;;4995649;28;20050;-70
2023/05/16 11:55:14;;;;;;;7.73;2.50;;;15.80;95.80;;;;;;4995613;28;20058;-70
2023/05/16 11:57:41;;;;;;;7.67;3.43;;;15.80;94.30;;;;;;4995609;28;20054;-70
2023/05/16 12:00:15;;;;;;;8.77;2.67;;;15.80;93.80;;;;;;4995224;28;20494;-70
2023/05/16 12:02:42;;;;;;;7.43;2.95;;;15.90;93.20;;;;;;4995439;28;20054;-70
2023/05/16 12:05:09;;;;;;;7.43;2.50;;;16.00;93.80;;;;;;4995990;28;20089;-70
2023/05/16 12:07:38;;;;;;;8.03;2.77;;;15.90;92.30;;;;;;4995662;28;20129;-70
2023/05/16 12:10:08;;;;;;;4.90;2.23;;;15.90;92.60;;;;;;4995340;28;20104;-70
2023/05/16 12:12:39;;;;;;;7.73;2.67;;;15.90;91.40;;;;;;4995236;28;20054;-70
2023/05/16 12:15:07;;;;;;;7.77;2.33;;;15.90;91.20;;;;;;4995241;28;20061;-70
2023/05/16 12:17:34;;;;;;;9.07;2.90;;;15.90;91.10;;;;;;4995224;28;20492;-70
2023/05/16 12:20:01;;;;;;;13.60;3.13;;;16.00;90.90;;;;;;4995915;28;20391;-70
2023/05/16 12:22:26;;;;;;;7.30;2.40;;;16.00;90.90;;;;;;4995633;28;20105;-70
2023/05/16 12:24:52;;;;;;;6.53;2.30;;;15.90;90.60;;;;;;4995008;28;20050;-70
2023/05/16 12:27:22;;;;;;;8.87;2.90;;;15.80;90.10;;;;;;4995130;28;20053;-70
2023/05/16 12:29:49;;;;;;;9.50;2.57;;;15.90;89.40;;;;;;4994831;28;20483;-70
2023/05/16 12:32:18;;;;;;;8.67;3.30;;;15.90;89.00;;;;;;4994856;28;20085;-69
2023/05/16 12:34:51;;;;;;;6.40;2.23;;;16.00;85.80;;;;;;4993844;28;20056;-70
2023/05/16 12:37:18;;;;;;;7.10;2.27;;;16.10;81.90;;;;;;4995580;28;20069;-69
2023/05/16 12:39:47;;;;;;;6.77;2.73;;;16.10;80.40;;;;;;4993310;28;20069;-71
2023/05/16 12:42:13;;;;;;;5.97;2.80;;;16.00;78.40;;;;;;4994023;28;20046;-69
2023/05/16 12:44:42;;;;;;;7.57;3.20;;;16.00;76.20;;;;;;4994751;28;20042;-69
2023/05/16 12:47:11;;;;;;;7.23;3.10;;;16.10;76.00;;;;;;4995517;28;20088;-67
2023/05/16 12:49:47;;;;;;;7.10;3.20;;;16.10;72.60;;;;;;4994652;28;20054;-67